Conger, Minnesota
Current Conditions -  °F | °C
As of 8:53 PM on Friday 21 Nov 2014 (Local Time) from KAEL Reporting Station
Overcast Overcast  
Wind Chill: 21°   Ceiling: 1300
Heat Index: 32°   Visibility: 7mi
Dew Point: 27°   Wind: 16mph
Humidity: 80%   Direction: 190°S
Pressure: 29.95"   Gusts: 22mph
Location:  43.61°N, 93.53°W
Report Text: KAEL 220253Z AUTO 19014G19KT 7SM OVC013 00/M03 A2995 RMK AO2
Loading
Personal Weather Stations






























Interactive Weather Map New forecast layout! Learn more

10-Day Weather Forecast

Advertisements
Track Severe Weather on mobile